Time;durP1;ratioP1;P1;durP2;ratioP2;P2;SDS_P1;SDS_P2;PMS_P1;PMS_P2;Temp;Humidity;BMP_temperature;BMP_pressure;BME280_temperature;BME280_humidity;BME280_pressure;Samples;Min_cycle;Max_cycle;Signal;HPM_P1;HPM_P2
2022/09/12 00:01:56;;;;;;;14.27;9.75;;;16.60;94.60;;;;;;5070973;28;20117;-79
2022/09/12 00:04:22;;;;;;;13.63;10.65;;;16.50;94.70;;;;;;5072217;28;20451;-79
2022/09/12 00:06:47;;;;;;;13.75;10.75;;;16.50;94.80;;;;;;5072521;28;20100;-79
2022/09/12 00:09:14;;;;;;;13.77;9.98;;;16.50;94.90;;;;;;5072834;28;20028;-80
2022/09/12 00:11:43;;;;;;;13.18;9.52;;;16.50;95.00;;;;;;5074407;28;20119;-79
2022/09/12 00:14:11;;;;;;;14.57;10.35;;;16.50;95.10;;;;;;5073991;28;20460;-80
2022/09/12 00:16:37;;;;;;;13.05;10.60;;;16.40;95.20;;;;;;5073976;28;20075;-79
2022/09/12 00:19:04;;;;;;;15.95;11.10;;;16.40;95.30;;;;;;5055867;28;20036;-79
2022/09/12 00:21:32;;;;;;;15.82;11.05;;;16.40;95.40;;;;;;5073890;28;20021;-79
2022/09/12 00:23:57;;;;;;;14.43;9.55;;;16.40;95.80;;;;;;5072308;28;20388;-80
2022/09/12 00:26:23;;;;;;;14.15;10.27;;;16.30;95.60;;;;;;5072551;28;20028;-79
2022/09/12 00:28:49;;;;;;;15.13;10.48;;;16.30;95.70;;;;;;5039251;28;20036;-79
2022/09/12 00:31:22;;;;;;;14.10;10.63;;;16.30;95.90;;;;;;5072631;28;20029;-79
2022/09/12 00:33:48;;;;;;;13.57;10.73;;;16.30;96.00;;;;;;5056126;28;20193;-79
2022/09/12 00:36:23;;;;;;;13.50;10.18;;;16.30;96.10;;;;;;5072403;28;20029;-79
2022/09/12 00:38:50;;;;;;;12.45;9.50;;;16.20;96.20;;;;;;5072329;28;20021;-79
2022/09/12 00:41:18;;;;;;;11.57;9.55;;;16.20;96.30;;;;;;5072528;28;20021;-79
2022/09/12 00:43:57;;;;;;;12.98;10.23;;;16.20;96.30;;;;;;5072264;28;20468;-79
2022/09/12 00:46:29;;;;;;;13.13;9.60;;;16.20;96.50;;;;;;5072323;28;20028;-79
2022/09/12 00:49:19;;;;;;;12.88;9.60;;;16.20;96.50;;;;;;5072371;28;20107;-79
2022/09/12 00:51:54;;;;;;;14.63;10.18;;;16.10;96.50;;;;;;5072488;28;20013;-79
2022/09/12 00:54:29;;;;;;;14.07;9.70;;;16.10;96.60;;;;;;5072172;28;20031;-79
2022/09/12 00:57:00;;;;;;;14.07;10.45;;;16.00;96.70;;;;;;5073374;28;20028;-79
2022/09/12 00:59:39;;;;;;;14.05;10.50;;;16.00;96.80;;;;;;5072004;28;20070;-79
2022/09/12 01:02:06;;;;;;;12.75;9.65;;;16.00;96.80;;;;;;5072103;28;20380;-79
2022/09/12 01:04:34;;;;;;;13.50;10.27;;;16.00;96.90;;;;;;5071988;28;20055;-79
2022/09/12 01:07:02;;;;;;;13.45;9.80;;;15.90;96.90;;;;;;5073510;28;20103;-79
2022/09/12 01:09:28;;;;;;;13.77;10.48;;;15.90;97.00;;;;;;5055709;28;20040;-79
2022/09/12 01:11:54;;;;;;;15.35;10.68;;;15.90;97.10;;;;;;5072005;28;20028;-79
2022/09/12 01:14:20;;;;;;;16.63;11.77;;;15.80;97.20;;;;;;5072449;28;20056;-79
2022/09/12 01:16:47;;;;;;;16.23;11.75;;;15.80;97.30;;;;;;5055458;28;20067;-80
2022/09/12 01:19:17;;;;;;;16.05;11.88;;;15.80;97.50;;;;;;5073204;28;20530;-79
2022/09/12 01:22:20;;;;;;;17.77;12.15;;;15.80;97.60;;;;;;5072288;28;20024;-80
2022/09/12 01:24:54;;;;;;;17.10;12.73;;;15.80;97.80;;;;;;5073061;28;20077;-79
2022/09/12 01:27:48;;;;;;;16.92;13.20;;;15.70;97.80;;;;;;5071861;28;20111;-79
2022/09/12 01:30:28;;;;;;;19.48;12.98;;;15.70;97.90;;;;;;5071863;28;20060;-80
2022/09/12 01:33:25;;;;;;;17.45;12.57;;;15.70;98.00;;;;;;5073110;28;20032;-80
2022/09/12 01:36:15;;;;;;;17.48;12.88;;;15.60;98.10;;;;;;5074969;28;20025;-80
2022/09/12 01:38:51;;;;;;;17.60;13.23;;;15.60;98.20;;;;;;5075715;28;20115;-79
2022/09/12 01:41:49;;;;;;;17.63;13.25;;;15.60;98.20;;;;;;5075737;28;20024;-79
2022/09/12 01:44:24;;;;;;;18.70;13.15;;;15.60;98.40;;;;;;5075639;28;20477;-79
2022/09/12 01:46:58;;;;;;;20.08;14.40;;;15.60;98.40;;;;;;5076829;28;20024;-79
2022/09/12 01:49:31;;;;;;;21.05;15.48;;;15.50;98.50;;;;;;5075754;28;20166;-79
2022/09/12 01:52:03;;;;;;;19.05;14.43;;;15.50;98.50;;;;;;5076742;28;20046;-79
2022/09/12 01:54:34;;;;;;;20.67;15.75;;;15.50;98.60;;;;;;5075497;28;20036;-80
2022/09/12 01:57:06;;;;;;;21.50;15.15;;;15.50;98.70;;;;;;5076567;28;20028;-79
2022/09/12 01:59:40;;;;;;;22.02;16.88;;;15.50;98.80;;;;;;5075061;28;20097;-80
2022/09/12 02:02:08;;;;;;;;;;;15.50;98.90;;;;;;5076857;28;20074;-80
2022/09/12 02:04:56;;;;;;;19.20;14.55;;;15.50;98.90;;;;;;5075069;28;20384;-80
2022/09/12 02:07:31;;;;;;;21.30;15.25;;;15.40;98.90;;;;;;5076332;28;20032;-79
2022/09/12 02:10:06;;;;;;;22.23;16.17;;;15.40;98.90;;;;;;5075005;28;20481;-80
2022/09/12 02:12:40;;;;;;;23.98;17.10;;;15.40;99.00;;;;;;5076207;28;20485;-79
2022/09/12 02:15:08;;;;;;;21.77;16.20;;;15.40;99.10;;;;;;5076218;28;20435;-80
2022/09/12 02:17:41;;;;;;;22.63;16.52;;;15.30;99.10;;;;;;5075119;28;20060;-80
2022/09/12 02:20:21;;;;;;;21.73;16.48;;;15.30;99.20;;;;;;5074857;28;20031;-80
2022/09/12 02:22:48;;;;;;;20.17;15.60;;;15.30;99.30;;;;;;5074910;28;20024;-80
2022/09/12 02:25:17;;;;;;;21.00;16.17;;;15.30;99.30;;;;;;5074927;28;20184;-80
2022/09/12 02:27:53;;;;;;;23.52;18.00;;;15.30;99.40;;;;;;5075999;28;20021;-79
2022/09/12 02:30:20;;;;;;;23.02;16.85;;;15.30;99.50;;;;;;5074668;28;20500;-79
2022/09/12 02:33:00;;;;;;;24.98;17.25;;;15.30;99.50;;;;;;5074653;28;20028;-79
2022/09/12 02:35:35;;;;;;;23.55;17.48;;;15.30;99.60;;;;;;5076030;28;20016;-79
2022/09/12 02:38:27;;;;;;;24.20;17.73;;;15.20;99.60;;;;;;5075752;28;20048;-79
2022/09/12 02:40:53;;;;;;;22.45;16.42;;;15.20;99.70;;;;;;5074614;28;20484;-79
2022/09/12 02:43:18;;;;;;;22.65;15.93;;;15.20;99.70;;;;;;5074594;28;20032;-80
2022/09/12 02:45:44;;;;;;;23.75;16.52;;;15.20;99.80;;;;;;5070465;28;20029;-79
2022/09/12 02:48:20;;;;;;;23.52;17.38;;;15.10;99.80;;;;;;5046979;28;20082;-79
2022/09/12 02:50:45;;;;;;;21.58;16.75;;;15.20;99.90;;;;;;5054200;28;20059;-79
2022/09/12 02:53:11;;;;;;;24.90;18.27;;;15.20;99.90;;;;;;5055620;28;20053;-79
2022/09/12 02:55:40;;;;;;;24.80;17.23;;;15.10;99.90;;;;;;5037643;28;20031;-79
2022/09/12 02:58:12;;;;;;;24.88;17.55;;;15.10;99.90;;;;;;5055185;28;20018;-79
2022/09/12 03:00:53;;;;;;;22.55;15.95;;;15.10;99.90;;;;;;5054073;28;20416;-79
2022/09/12 03:03:40;;;;;;;22.95;17.55;;;15.10;99.90;;;;;;5054191;28;20086;-79
2022/09/12 03:06:17;;;;;;;24.05;16.27;;;15.10;99.90;;;;;;5055452;28;20466;-80
2022/09/12 03:08:45;;;;;;;27.05;18.00;;;15.10;99.90;;;;;;5054092;28;20028;-79
2022/09/12 03:12:01;;;;;;;26.42;17.85;;;15.10;99.90;;;;;;5055212;28;20075;-79
2022/09/12 03:14:29;;;;;;;29.58;18.75;;;15.10;99.90;;;;;;5062792;28;20076;-79
2022/09/12 03:17:25;;;;;;;26.90;18.40;;;15.10;99.90;;;;;;5053850;28;20072;-79
2022/09/12 03:19:59;;;;;;;26.10;18.77;;;15.00;99.90;;;;;;5055019;28;20113;-79
2022/09/12 03:22:44;;;;;;;31.10;19.05;;;15.00;99.90;;;;;;5053894;28;20027;-79
2022/09/12 03:25:23;;;;;;;26.92;19.27;;;15.00;99.90;;;;;;5053691;28;20536;-80
2022/09/12 03:27:56;;;;;;;30.20;20.10;;;14.90;99.90;;;;;;5053675;28;20032;-80
2022/09/12 03:30:21;;;;;;;28.58;20.08;;;15.00;99.90;;;;;;5054885;28;20028;-79
2022/09/12 03:32:50;;;;;;;30.23;21.38;;;15.00;99.90;;;;;;5053506;28;20021;-79
2022/09/12 03:35:17;;;;;;;34.03;21.55;;;14.90;99.90;;;;;;5053475;28;20044;-80
2022/09/12 03:37:43;;;;;;;33.53;21.17;;;14.90;99.90;;;;;;5053498;28;20032;-80
2022/09/12 03:40:10;;;;;;;35.58;23.85;;;14.90;99.90;;;;;;5053160;28;20029;-80
2022/09/12 03:42:36;;;;;;;33.05;22.08;;;14.90;99.90;;;;;;5053546;28;20555;-80
2022/09/12 03:45:02;;;;;;;34.53;23.85;;;14.90;99.90;;;;;;5061086;28;20032;-80
2022/09/12 03:47:28;;;;;;;34.10;23.30;;;14.90;99.90;;;;;;5069754;28;20082;-80
2022/09/12 03:49:54;;;;;;;35.88;24.55;;;14.90;99.90;;;;;;5053237;28;20424;-80
2022/09/12 03:52:19;;;;;;;35.65;24.15;;;14.90;99.90;;;;;;5020178;28;20049;-80
2022/09/12 03:54:45;;;;;;;37.63;24.95;;;14.90;99.90;;;;;;5036586;28;20507;-80
2022/09/12 03:57:11;;;;;;;35.42;24.08;;;14.90;99.90;;;;;;5054451;28;20033;-79
2022/09/12 03:59:36;;;;;;;36.78;24.13;;;14.90;99.90;;;;;;5035377;28;20045;-80
2022/09/12 04:02:03;;;;;;;35.45;25.77;;;14.90;99.90;;;;;;5020112;28;20021;-79
2022/09/12 04:04:29;;;;;;;36.88;25.45;;;14.90;99.90;;;;;;5054383;28;20114;-80
2022/09/12 04:06:54;;;;;;;32.33;23.77;;;14.90;99.90;;;;;;5020015;28;20500;-79
2022/09/12 04:09:20;;;;;;;38.00;25.52;;;14.90;99.90;;;;;;5054251;28;20095;-82
2022/09/12 04:11:46;;;;;;;37.58;25.40;;;14.90;99.90;;;;;;5044034;28;20021;-82
2022/09/12 04:14:11;;;;;;;40.53;27.17;;;14.90;99.90;;;;;;5056809;28;20121;-82
2022/09/12 04:16:37;;;;;;;40.22;24.55;;;14.90;99.90;;;;;;5033010;28;20032;-82
2022/09/12 04:19:03;;;;;;;38.35;25.40;;;14.90;99.90;;;;;;5021811;28;20094;-82
2022/09/12 04:21:29;;;;;;;36.70;25.30;;;14.90;99.90;;;;;;5052736;28;20025;-83
2022/09/12 04:23:55;;;;;;;41.22;27.17;;;14.90;99.90;;;;;;5053938;28;20024;-83
2022/09/12 04:26:21;;;;;;;42.83;27.10;;;14.80;99.90;;;;;;5035963;28;20028;-83
2022/09/12 04:28:47;;;;;;;40.42;25.85;;;14.90;99.90;;;;;;5052922;28;20029;-83
2022/09/12 04:31:22;;;;;;;38.90;26.77;;;14.90;99.90;;;;;;5052513;28;20031;-83
2022/09/12 04:33:54;;;;;;;40.97;26.17;;;14.90;99.90;;;;;;5052483;28;20075;-83
2022/09/12 04:36:19;;;;;;;37.38;25.08;;;14.90;99.90;;;;;;5053759;28;20059;-83
2022/09/12 04:38:46;;;;;;;40.47;26.58;;;14.90;99.90;;;;;;5053698;28;20053;-83
2022/09/12 04:41:24;;;;;;;43.83;27.27;;;14.90;99.90;;;;;;5052283;28;20020;-83
2022/09/12 04:43:57;;;;;;;44.90;27.23;;;14.90;99.90;;;;;;5053650;28;20017;-84
2022/09/12 04:46:24;;;;;;;40.65;26.70;;;14.90;99.90;;;;;;5052658;28;20017;-84
2022/09/12 04:48:50;;;;;;;48.38;28.95;;;14.90;99.90;;;;;;5052291;28;20024;-83
2022/09/12 04:51:20;;;;;;;42.90;26.35;;;14.90;99.90;;;;;;5052238;28;20025;-83
2022/09/12 04:53:51;;;;;;;43.00;26.95;;;14.90;99.90;;;;;;5053702;28;20033;-83
2022/09/12 04:56:19;;;;;;;45.13;28.75;;;14.90;99.90;;;;;;5052368;28;20063;-83
2022/09/12 04:58:45;;;;;;;45.85;28.95;;;14.90;99.90;;;;;;5052223;28;20033;-83
2022/09/12 05:01:17;;;;;;;47.00;28.85;;;14.90;99.90;;;;;;5035195;28;20024;-83
2022/09/12 05:03:44;;;;;;;47.00;28.60;;;14.90;99.90;;;;;;5051964;28;20021;-83
2022/09/12 05:06:13;;;;;;;42.65;28.15;;;14.90;99.90;;;;;;5052022;28;20163;-83
2022/09/12 05:08:38;;;;;;;51.47;30.92;;;14.90;99.90;;;;;;5052299;28;20017;-83
2022/09/12 05:11:15;;;;;;;46.35;29.10;;;14.90;99.90;;;;;;5035366;28;20469;-84
2022/09/12 05:13:41;;;;;;;51.28;29.40;;;14.90;99.90;;;;;;5055763;28;20110;-83
2022/09/12 05:16:13;;;;;;;48.15;29.73;;;14.90;99.90;;;;;;5060808;28;20041;-83
2022/09/12 05:18:39;;;;;;;48.13;31.55;;;15.00;99.90;;;;;;5051803;28;20018;-84
2022/09/12 05:21:09;;;;;;;49.70;29.40;;;14.90;99.90;;;;;;5051573;28;20124;-84
2022/09/12 05:23:35;;;;;;;55.33;32.30;;;14.90;99.90;;;;;;5052665;28;20377;-82
2022/09/12 05:26:02;;;;;;;50.03;30.83;;;15.00;99.90;;;;;;5041865;28;20116;-83
2022/09/12 05:28:31;;;;;;;50.80;29.55;;;15.00;99.90;;;;;;5052187;28;20025;-82
2022/09/12 05:31:27;;;;;;;53.38;32.75;;;15.00;99.90;;;;;;5051943;28;20031;-83
2022/09/12 05:33:54;;;;;;;50.55;29.92;;;15.00;99.90;;;;;;5047462;28;20112;-83
2022/09/12 05:36:28;;;;;;;50.03;30.20;;;15.00;99.90;;;;;;5051820;28;20017;-83
2022/09/12 05:38:54;;;;;;;;;;;15.10;99.90;;;;;;5052193;28;20025;-83
2022/09/12 05:41:23;;;;;;;47.28;27.77;;;15.10;99.90;;;;;;5051766;28;19911;-83
2022/09/12 05:43:53;;;;;;;53.08;30.50;;;15.10;99.90;;;;;;5057202;28;20013;-83
2022/09/12 05:46:21;;;;;;;53.25;30.60;;;15.10;99.90;;;;;;5052304;28;20486;-83
2022/09/12 05:48:48;;;;;;;52.78;30.63;;;15.10;99.90;;;;;;5057505;28;20476;-83
2022/09/12 05:51:18;;;;;;;52.72;31.67;;;15.10;99.90;;;;;;5055161;28;20021;-83
2022/09/12 05:53:46;;;;;;;54.42;33.25;;;15.10;99.90;;;;;;5071731;28;20032;-83
2022/09/12 05:56:14;;;;;;;52.47;31.55;;;15.20;99.90;;;;;;5071875;28;20021;-83
2022/09/12 05:58:43;;;;;;;51.03;31.33;;;15.20;99.90;;;;;;5063846;28;20072;-83
2022/09/12 06:01:11;;;;;;;55.10;32.38;;;15.20;99.90;;;;;;5034843;28;20025;-82
2022/09/12 06:03:45;;;;;;;53.83;32.05;;;15.30;99.90;;;;;;5067821;28;20103;-83
2022/09/12 06:06:12;;;;;;;53.33;31.50;;;15.30;99.90;;;;;;5071780;28;20377;-83
2022/09/12 06:08:43;;;;;;;51.40;29.88;;;15.30;99.90;;;;;;5054971;28;20036;-83
2022/09/12 06:11:11;;;;;;;50.35;32.25;;;15.40;99.90;;;;;;5055221;28;20020;-82
2022/09/12 06:13:39;;;;;;;55.03;32.45;;;15.40;99.90;;;;;;5071773;28;20025;-82
2022/09/12 06:16:12;;;;;;;53.70;30.88;;;15.40;99.90;;;;;;5054777;28;20048;-82
2022/09/12 06:18:40;;;;;;;56.97;32.42;;;15.50;99.90;;;;;;5070982;28;20048;-83
2022/09/12 06:21:08;;;;;;;52.70;30.98;;;15.50;99.90;;;;;;5072555;28;20086;-82
2022/09/12 06:23:34;;;;;;;57.22;31.98;;;15.50;99.90;;;;;;5057252;28;20020;-82
2022/09/12 06:26:00;;;;;;;55.35;32.28;;;15.50;99.90;;;;;;5074535;28;20023;-80
2022/09/12 06:28:27;;;;;;;55.35;32.75;;;15.70;99.90;;;;;;5074576;28;20063;-81
2022/09/12 06:30:52;;;;;;;57.67;31.27;;;15.60;99.90;;;;;;5076046;28;20472;-81
2022/09/12 06:33:19;;;;;;;52.42;31.70;;;15.60;99.90;;;;;;5074640;28;20036;-82
2022/09/12 06:35:45;;;;;;;53.17;30.48;;;15.70;99.90;;;;;;5074614;28;20031;-81
2022/09/12 06:38:10;;;;;;;51.45;30.08;;;15.60;99.90;;;;;;5074746;28;20032;-82
2022/09/12 06:40:45;;;;;;;55.67;31.75;;;15.70;99.90;;;;;;5074586;28;20028;-82
2022/09/12 06:43:15;;;;;;;56.38;31.92;;;15.70;99.90;;;;;;5074615;28;20028;-83
2022/09/12 06:45:48;;;;;;;54.30;30.88;;;15.70;99.90;;;;;;5066111;28;20025;-83
2022/09/12 06:48:13;;;;;;;54.23;30.70;;;15.70;99.90;;;;;;5054579;28;20481;-84
2022/09/12 06:50:39;;;;;;;54.80;30.75;;;15.70;99.90;;;;;;5054169;28;20021;-83
2022/09/12 06:53:05;;;;;;;52.70;31.63;;;15.60;99.90;;;;;;5021214;28;20032;-84
2022/09/12 06:55:33;;;;;;;57.42;32.70;;;15.60;99.90;;;;;;5041224;28;20027;-84
2022/09/12 06:57:59;;;;;;;56.38;32.13;;;15.70;99.90;;;;;;5054086;28;20013;-84
2022/09/12 07:00:27;;;;;;;62.15;33.05;;;15.70;99.90;;;;;;5049916;28;20021;-84
2022/09/12 07:02:55;;;;;;;59.65;34.95;;;15.70;99.90;;;;;;5041132;28;20427;-84
2022/09/12 07:05:21;;;;;;;59.72;33.05;;;15.80;99.90;;;;;;5074321;28;20025;-84
2022/09/12 07:07:47;;;;;;;57.35;33.78;;;15.70;99.90;;;;;;5057119;28;20029;-83
2022/09/12 07:10:15;;;;;;;54.33;31.48;;;15.70;99.90;;;;;;5056673;28;20029;-83
2022/09/12 07:12:41;;;;;;;54.10;31.70;;;15.80;99.90;;;;;;5073740;28;20079;-84
2022/09/12 07:15:10;;;;;;;51.95;31.10;;;15.80;99.90;;;;;;5073808;28;20064;-84
2022/09/12 07:17:40;;;;;;;54.92;31.88;;;15.90;99.90;;;;;;5073821;28;20116;-84
2022/09/12 07:20:06;;;;;;;54.63;31.27;;;16.00;99.90;;;;;;5069564;28;20033;-83
2022/09/12 07:22:32;;;;;;;54.97;33.28;;;16.00;99.90;;;;;;5053664;28;20028;-84
2022/09/12 07:24:57;;;;;;;54.25;31.25;;;16.10;99.90;;;;;;5053309;28;20021;-83
2022/09/12 07:27:23;;;;;;;51.92;30.88;;;16.10;99.90;;;;;;5054813;28;20028;-84
2022/09/12 07:29:49;;;;;;;59.85;32.97;;;16.10;99.90;;;;;;5054593;28;20465;-84
2022/09/12 07:32:15;;;;;;;52.08;31.10;;;16.10;99.90;;;;;;5053686;28;20033;-84
2022/09/12 07:34:44;;;;;;;59.08;32.60;;;16.20;99.90;;;;;;5037049;28;20029;-84
2022/09/12 07:37:09;;;;;;;53.38;30.50;;;16.20;99.90;;;;;;5054801;28;20029;-84
2022/09/12 07:39:37;;;;;;;51.58;31.85;;;16.30;99.90;;;;;;5054660;28;20025;-84
2022/09/12 07:42:03;;;;;;;53.75;31.02;;;16.30;99.90;;;;;;5020629;28;20108;-84
2022/09/12 07:44:29;;;;;;;53.58;30.20;;;16.50;99.90;;;;;;5020263;28;20033;-84
2022/09/12 07:46:54;;;;;;;50.22;31.73;;;16.50;99.90;;;;;;5053369;28;20029;-83
2022/09/12 07:49:20;;;;;;;49.08;30.42;;;16.60;99.90;;;;;;5053228;28;20021;-84
2022/09/12 07:51:45;;;;;;;53.40;31.05;;;16.70;99.90;;;;;;5036852;28;20025;-84
2022/09/12 07:54:11;;;;;;;48.80;29.63;;;16.70;99.90;;;;;;5054412;28;20029;-84
2022/09/12 07:56:39;;;;;;;50.00;31.77;;;16.80;99.90;;;;;;5036409;28;20033;-82
2022/09/12 07:59:05;;;;;;;52.38;30.92;;;16.80;99.90;;;;;;5052997;28;20056;-84
2022/09/12 08:01:31;;;;;;;52.83;31.95;;;16.80;99.90;;;;;;5053078;28;20017;-84
2022/09/12 08:03:58;;;;;;;50.25;31.58;;;16.80;99.90;;;;;;5042748;28;20029;-83
2022/09/12 08:06:26;;;;;;;49.28;31.23;;;16.80;99.90;;;;;;5052935;28;20021;-81
2022/09/12 08:08:54;;;;;;;53.05;31.85;;;16.80;99.90;;;;;;5071343;28;20029;-81
2022/09/12 08:11:22;;;;;;;49.13;30.13;;;16.80;99.90;;;;;;5072953;28;20060;-81
2022/09/12 08:13:49;;;;;;;45.50;28.85;;;16.90;99.90;;;;;;5059403;28;20032;-82
2022/09/12 08:16:17;;;;;;;49.47;29.17;;;16.90;99.90;;;;;;5059545;28;20028;-80
2022/09/12 08:18:43;;;;;;;46.22;28.88;;;17.00;99.90;;;;;;5073791;28;20024;-82
2022/09/12 08:21:15;;;;;;;47.17;28.90;;;17.00;99.90;;;;;;5072713;28;20146;-81
2022/09/12 08:23:41;;;;;;;44.25;29.33;;;17.10;99.90;;;;;;5072759;28;20017;-84
2022/09/12 08:26:08;;;;;;;44.88;28.60;;;17.10;99.90;;;;;;5072569;28;20111;-84
2022/09/12 08:28:35;;;;;;;40.75;26.42;;;17.20;99.90;;;;;;5056133;28;20455;-82
2022/09/12 08:31:09;;;;;;;43.97;25.55;;;17.30;99.90;;;;;;5072536;28;20016;-83
2022/09/12 08:33:36;;;;;;;42.05;26.65;;;17.30;99.90;;;;;;5072454;28;20020;-84
2022/09/12 08:36:23;;;;;;;41.20;24.65;;;17.30;99.90;;;;;;5072634;28;20139;-84
2022/09/12 08:39:01;;;;;;;40.65;27.02;;;17.40;99.90;;;;;;5073480;28;20032;-84
2022/09/12 08:41:46;;;;;;;39.40;25.38;;;17.50;99.90;;;;;;5072243;28;20039;-84
2022/09/12 08:44:56;;;;;;;34.45;21.98;;;17.50;99.90;;;;;;5073627;28;20025;-85
2022/09/12 08:47:36;;;;;;;35.20;21.65;;;17.60;99.90;;;;;;5072266;28;20017;-82
2022/09/12 08:50:10;;;;;;;34.03;22.52;;;17.70;99.90;;;;;;5072275;28;20058;-83
2022/09/12 08:52:57;;;;;;;30.45;20.73;;;17.80;99.90;;;;;;5072191;28;20020;-83
2022/09/12 08:55:30;;;;;;;31.88;20.45;;;17.90;99.90;;;;;;5072232;28;20062;-83
2022/09/12 08:57:59;;;;;;;30.95;20.52;;;18.00;99.90;;;;;;5071920;28;20028;-83
2022/09/12 09:00:37;;;;;;;27.60;19.00;;;18.10;99.90;;;;;;5073292;28;20476;-83
2022/09/12 09:03:08;;;;;;;25.70;18.00;;;18.10;99.90;;;;;;5057637;28;20473;-84
2022/09/12 09:05:42;;;;;;;26.33;19.13;;;18.20;99.70;;;;;;5052067;28;20111;-84
2022/09/12 09:08:17;;;;;;;25.75;17.15;;;18.30;99.60;;;;;;5055876;28;20039;-84
2022/09/12 09:11:05;;;;;;;25.42;15.25;;;18.50;99.40;;;;;;5068587;28;20029;-84
2022/09/12 09:16:39;;;;;;;19.80;12.70;;;18.70;98.80;;;;;;5070057;28;20120;-85
2022/09/12 09:19:33;;;;;;;21.10;13.18;;;18.70;98.30;;;;;;5071976;28;20044;-84
2022/09/12 09:22:25;;;;;;;20.73;13.07;;;18.80;98.10;;;;;;5072916;28;20366;-84
2022/09/12 09:24:58;;;;;;;19.10;12.38;;;19.00;97.80;;;;;;5072547;28;20025;-85
2022/09/12 09:27:40;;;;;;;22.10;13.52;;;19.10;97.40;;;;;;5072501;28;20062;-84
2022/09/12 09:30:21;;;;;;;18.30;12.77;;;19.20;97.00;;;;;;5071792;28;20025;-86
2022/09/12 09:32:54;;;;;;;17.92;13.18;;;19.30;96.70;;;;;;5071898;28;20400;-84
2022/09/12 09:35:36;;;;;;;19.05;12.32;;;19.40;96.40;;;;;;5071798;28;20024;-86
2022/09/12 09:38:17;;;;;;;18.52;12.00;;;19.50;95.60;;;;;;5059132;28;20033;-84
2022/09/12 09:41:01;;;;;;;19.23;12.68;;;19.60;95.30;;;;;;5053058;28;20508;-82
2022/09/12 09:43:30;;;;;;;19.80;11.82;;;19.70;95.00;;;;;;5072595;28;20465;-87
2022/09/12 09:45:58;;;;;;;18.15;11.45;;;19.80;94.80;;;;;;5071652;28;20024;-85
2022/09/12 09:48:43;;;;;;;16.88;11.43;;;19.90;94.60;;;;;;5071764;28;20084;-84
2022/09/12 09:51:09;;;;;;;14.70;10.57;;;20.00;94.20;;;;;;5072069;28;20020;-86
2022/09/12 09:54:01;;;;;;;16.95;10.55;;;20.10;94.00;;;;;;5055086;28;20040;-84
2022/09/12 09:56:34;;;;;;;12.70;9.35;;;20.20;93.50;;;;;;5072854;28;20477;-85
2022/09/12 09:59:19;;;;;;;19.30;10.57;;;20.40;93.30;;;;;;5057643;28;20041;-84
2022/09/12 10:01:50;;;;;;;15.82;9.63;;;20.60;92.70;;;;;;5068560;28;20040;-85
2022/09/12 10:04:25;;;;;;;12.02;7.80;;;20.80;92.50;;;;;;5069569;28;20033;-84
2022/09/12 10:06:57;;;;;;;15.43;8.43;;;21.00;91.90;;;;;;5075026;28;20024;-83
2022/09/12 10:09:28;;;;;;;9.93;7.32;;;21.40;91.20;;;;;;5055104;28;20064;-84
2022/09/12 10:11:56;;;;;;;11.88;8.48;;;21.80;91.00;;;;;;5055436;28;20029;-83
2022/09/12 10:14:34;;;;;;;8.98;6.50;;;22.30;90.70;;;;;;5054855;28;20032;-81
2022/09/12 10:17:02;;;;;;;9.85;6.60;;;22.90;90.20;;;;;;5056517;28;20032;-78
2022/09/12 10:19:39;;;;;;;9.50;6.18;;;23.50;89.60;;;;;;5055433;28;20120;-79
2022/09/12 10:22:06;;;;;;;8.57;5.82;;;24.30;86.60;;;;;;5062383;28;20025;-77
2022/09/12 10:24:35;;;;;;;8.57;5.72;;;25.00;84.80;;;;;;5076159;28;20361;-77
2022/09/12 10:27:17;;;;;;;7.68;4.72;;;25.70;82.20;;;;;;5074820;28;20476;-82
2022/09/12 10:29:53;;;;;;;7.00;5.40;;;26.50;78.10;;;;;;5075597;28;20388;-81
2022/09/12 10:32:37;;;;;;;6.15;4.35;;;27.10;76.50;;;;;;5076324;28;20033;-82
2022/09/12 10:35:30;;;;;;;7.18;5.15;;;27.70;74.60;;;;;;5074574;28;20025;-79
2022/09/12 10:38:05;;;;;;;4.75;3.75;;;28.40;69.70;;;;;;5074558;28;20017;-78
2022/09/12 10:40:38;;;;;;;5.75;4.03;;;28.80;68.80;;;;;;5075049;28;20078;-80
2022/09/12 10:43:15;;;;;;;;;;;29.30;66.90;;;;;;5074901;28;20077;-78
2022/09/12 10:45:41;;;;;;;6.50;4.13;;;29.80;65.70;;;;;;5075657;28;19912;-83
2022/09/12 10:48:28;;;;;;;8.38;4.88;;;30.40;64.80;;;;;;5057697;28;20496;-80
2022/09/12 10:50:54;;;;;;;5.53;4.10;;;30.90;60.40;;;;;;5075103;28;20051;-80
2022/09/12 10:53:25;;;;;;;8.35;4.15;;;31.40;59.40;;;;;;5075594;28;20477;-81
2022/09/12 10:56:17;;;;;;;7.15;3.67;;;31.80;57.10;;;;;;5074142;28;20021;-82
2022/09/12 10:59:19;;;;;;;6.80;3.83;;;32.20;55.90;;;;;;5075317;28;20044;-82
2022/09/12 11:02:03;;;;;;;7.30;3.97;;;32.60;54.70;;;;;;5063603;28;20055;-82
2022/09/12 11:05:07;;;;;;;5.80;4.15;;;32.90;53.50;;;;;;5054231;28;20028;-82
2022/09/12 11:07:48;;;;;;;6.70;3.92;;;33.30;52.30;;;;;;5055032;28;20021;-82
2022/09/12 11:10:26;;;;;;;4.78;3.50;;;33.60;52.30;;;;;;5055158;28;20056;-82
2022/09/12 11:13:19;;;;;;;5.10;3.55;;;34.00;51.00;;;;;;5054578;28;20056;-83
2022/09/12 11:16:03;;;;;;;4.63;3.38;;;34.30;49.90;;;;;;5053900;28;20115;-82
2022/09/12 11:18:52;;;;;;;5.07;2.75;;;34.50;48.70;;;;;;5055081;28;20017;-82
2022/09/12 11:21:43;;;;;;;9.30;2.83;;;34.80;48.00;;;;;;5071747;28;20048;-86
2022/09/12 11:24:18;;;;;;;3.88;2.65;;;35.00;46.90;;;;;;5053967;28;20053;-85
2022/09/12 11:27:01;;;;;;;3.92;2.10;;;34.90;46.90;;;;;;5062576;28;20094;-84
2022/09/12 11:30:00;;;;;;;2.83;2.08;;;34.70;46.60;;;;;;5065924;28;20033;-84
2022/09/12 11:32:51;;;;;;;2.72;1.92;;;34.30;46.20;;;;;;5054118;28;20486;-84
2022/09/12 11:35:27;;;;;;;3.78;2.20;;;34.20;46.30;;;;;;5054034;28;20074;-85
2022/09/12 11:38:26;;;;;;;2.75;2.10;;;33.90;46.30;;;;;;5054903;28;20017;-85
2022/09/12 11:41:00;;;;;;;5.18;2.38;;;33.60;46.00;;;;;;5053875;28;20057;-85
2022/09/12 11:43:39;;;;;;;4.30;2.67;;;33.50;46.00;;;;;;5053779;28;20027;-84
2022/09/12 11:46:34;;;;;;;2.45;1.77;;;33.30;46.10;;;;;;5053426;28;20017;-79
2022/09/12 11:49:14;;;;;;;3.13;1.77;;;33.20;46.40;;;;;;5054954;28;20044;-78
2022/09/12 11:52:07;;;;;;;3.20;1.33;;;33.20;46.50;;;;;;5060191;28;20435;-79
2022/09/12 11:54:36;;;;;;;;;;;33.20;46.10;;;;;;5060257;28;20473;-78
2022/09/12 11:57:13;;;;;;;2.83;1.30;;;33.10;46.20;;;;;;5060709;28;20357;-80
2022/09/12 11:59:58;;;;;;;2.45;1.17;;;33.00;46.40;;;;;;5059272;28;20072;-79
2022/09/12 12:02:39;;;;;;;3.65;1.58;;;33.00;45.70;;;;;;5069131;28;20468;-82
2022/09/12 12:05:19;;;;;;;3.13;1.40;;;33.00;45.40;;;;;;5063958;28;20369;-81
2022/09/12 12:07:51;;;;;;;4.45;1.40;;;33.10;45.80;;;;;;5060387;28;20021;-80
2022/09/12 12:10:25;;;;;;;4.68;1.40;;;33.10;45.00;;;;;;5056149;28;20031;-80
2022/09/12 12:12:52;;;;;;;3.45;1.48;;;33.20;44.90;;;;;;5062551;28;20024;-80
2022/09/12 12:15:19;;;;;;;4.60;1.58;;;33.20;44.60;;;;;;5063619;28;20052;-79
2022/09/12 12:18:01;;;;;;;2.55;1.52;;;33.20;44.50;;;;;;5059829;28;20096;-79
2022/09/12 12:20:27;;;;;;;3.05;1.60;;;33.10;44.20;;;;;;5063576;28;20033;-80
2022/09/12 12:22:54;;;;;;;4.43;1.60;;;33.00;44.40;;;;;;5053286;28;20025;-81
2022/09/12 12:25:19;;;;;;;2.22;1.48;;;32.90;44.20;;;;;;5055514;28;20024;-80
2022/09/12 12:27:52;;;;;;;2.53;1.67;;;32.80;44.50;;;;;;5067087;28;20163;-80
2022/09/12 12:30:30;;;;;;;2.38;1.40;;;32.80;44.50;;;;;;5059303;28;20045;-80
2022/09/12 12:33:12;;;;;;;3.72;1.25;;;32.90;44.70;;;;;;5060867;28;20496;-79
2022/09/12 12:35:45;;;;;;;3.60;1.65;;;33.00;44.70;;;;;;5065393;28;20033;-81
2022/09/12 12:38:31;;;;;;;2.97;1.63;;;33.20;44.80;;;;;;5061618;28;20020;-81
2022/09/12 12:41:15;;;;;;;4.10;2.45;;;33.20;44.50;;;;;;5057624;28;20051;-79
2022/09/12 12:43:45;;;;;;;4.85;2.17;;;33.30;44.40;;;;;;5059865;28;20507;-80
2022/09/12 12:46:13;;;;;;;6.25;2.47;;;33.30;44.60;;;;;;5057339;28;20037;-80
2022/09/12 12:49:07;;;;;;;3.97;1.27;;;33.40;44.60;;;;;;5046809;28;20031;-81
2022/09/12 12:51:41;;;;;;;2.25;1.10;;;33.40;44.50;;;;;;5063486;28;20048;-81
2022/09/12 12:54:27;;;;;;;1.83;1.02;;;33.50;44.30;;;;;;5059949;28;20031;-80
2022/09/12 12:57:27;;;;;;;3.55;1.15;;;33.60;43.80;;;;;;5071839;28;20023;-81
2022/09/12 13:00:05;;;;;;;3.20;1.08;;;33.60;43.70;;;;;;5071309;28;20068;-81
2022/09/12 13:02:35;;;;;;;2.50;1.13;;;33.80;43.90;;;;;;5071521;28;20133;-85
2022/09/12 13:05:05;;;;;;;4.35;1.50;;;33.90;43.70;;;;;;5071887;28;20024;-81
2022/09/12 13:07:39;;;;;;;3.92;1.52;;;33.90;42.90;;;;;;5072013;28;20385;-80